British Ensign — MMER9 — position and weather

sailwx.info

Track history (hours):
 
Tides and Currents Weather Stations Pressure Air Temp Water Temp Dewpoint Dewpoint Depression Visibility Wind Speed Wind Dir Waves Ship Positions

British Ensign

Last reported at 2014-Jul-20 19:00 UTC. Time now 2014-Jul-23 14:00 UTC.
Position N 61°48' E 002°30'.

Length 184.2 m; beam 27.4 m; draft 11.3 m.

Type: Ship. MMSI: 235010980.

Wind from 090 at 10 knots

Waves 0.5 meters (2 feet), 2 second period

Barometer 1017.1 mb
Air temperature 20.0 ° C
Visibility: greater than 10.8 NM
Dewpoint 14.9 ° C

Date/timePositionNaut miles runAvg speedWind from/ knotsBaromVisibWave heightAir tempDewpointWater temp
2014-Jul-20 19:00N 61°48' E 002°30'30412.0 090 / 101017.110.8 0.520.014.9
2014-Jul-19 17:33N 57°36' E 008°06'2014.2
2014-Jul-19 16:11N 57°40' E 008°41'913.9
2014-Jul-19 15:33N 57°43' E 008°57'1413.9
2014-Jul-19 14:32N 57°46' E 009°22'1413.9
2014-Jul-19 13:33N 57°47' E 009°48'1414.4
2014-Jul-19 12:33N 57°48' E 010°15'1414.1
2014-Jul-19 11:33N 57°48' E 010°41'6 6.1
2014-Jul-19 10:33N 57°42' E 010°41'0 0.0
2014-Jul-19 09:33N 57°42' E 010°41'0 0.0
2014-Jul-19 08:30N 57°42' E 010°41'0 0.1
2014-Jul-19 07:33N 57°42' E 010°41'0 0.0
2014-Jul-19 06:33N 57°42' E 010°41'0 0.0
2014-Jul-19 05:33N 57°42' E 010°41'0 0.0
2014-Jul-19 04:30N 57°42' E 010°41'5 5.1
2014-Jul-19 03:33N 57°46' E 010°44'9 9.4
2014-Jul-19 02:33N 57°47' E 010°27'1414.1
2014-Jul-19 01:33N 57°47' E 010°00'1714.2
2014-Jul-19 00:20N 57°46' E 009°28'1314.8
2014-Jul-18 23:26N 57°41' E 009°05'1514.7
2014-Jul-18 22:27N 57°35' E 008°41'1314.6
2014-Jul-18 21:33N 57°29' E 008°18'18013.6
2014-Jul-18 08:20N 55°02' E 005°14'2413.8
2014-Jul-18 06:33N 54°39' E 004°57'1413.7
2014-Jul-18 05:33N 54°27' E 004°49'1413.7
2014-Jul-18 04:32N 54°14' E 004°39'1413.9
2014-Jul-18 03:33N 54°00' E 004°38'1313.1
2014-Jul-18 02:33N 53°49' E 004°26'1413.6
2014-Jul-18 01:33N 53°40' E 004°09'1413.7
2014-Jul-18 00:33N 53°32' E 003°50'1313.2
2014-Jul-17 23:33N 53°21' E 003°39'1413.7
2014-Jul-17 22:33N 53°08' E 003°30'1414.1
2014-Jul-17 21:34N 52°55' E 003°20'1514.6
2014-Jul-17 20:34N 52°42' E 003°09'1515.1
2014-Jul-17 19:33N 52°29' E 002°57'1715.8
2014-Jul-17 18:30N 52°15' E 002°44'1515.4
2014-Jul-17 17:33N 51°60' E 002°45'1515.3
2014-Jul-17 16:33N 51°45' E 002°37'1515.3
2014-Jul-17 15:34N 51°34' E 002°20'1413.5
2014-Jul-17 14:33N 51°23' E 002°08'1312.7
2014-Jul-17 13:33N 51°12' E 001°59'1212.5
2014-Jul-17 12:34N 51°05' E 001°42'1111.4
2014-Jul-17 11:33N 50°56' E 001°31'1110.5
2014-Jul-17 10:33N 50°47' E 001°24'1111.4
2014-Jul-17 09:33N 50°37' E 001°14'1312.4
2014-Jul-17 08:33N 50°29' E 000°58'1212.5
2014-Jul-17 07:33N 50°26' E 000°40'1312.6
2014-Jul-17 06:33N 50°22' E 000°21'1412.4
2014-Jul-17 05:26N 50°17' E 000°00'1212.8
2014-Jul-17 04:32N 50°10' W 000°13'1413.2
2014-Jul-17 03:27N 50°00' W 000°30'1314.2
2014-Jul-17 02:33N 49°47' W 000°30'1212.3
2014-Jul-17 01:33N 49°36' W 000°22'1313.3
2014-Jul-17 00:33N 49°29' W 000°04'1212.4
2014-Jul-16 23:33N 49°26' E 000°14'10 9.7
2014-Jul-16 22:33N 49°29' E 000°28'7 7.5
2014-Jul-16 21:33N 49°27' E 000°39'  
2014-Jul-14 10:30N 49°27' E 000°34'1010.4
2014-Jul-14 09:34N 49°26' E 000°18'1212.0
2014-Jul-14 08:33N 49°28' E 000°00'7 6.8
2014-Jul-14 07:33N 49°29' W 000°10'0 0.1
2014-Jul-14 06:33N 49°29' W 000°10'0 0.1
2014-Jul-14 05:30N 49°29' W 000°10'0 0.3
2014-Jul-14 04:33N 49°29' W 000°11'9 8.7
2014-Jul-14 03:34N 49°33' W 000°22'9 9.1
2014-Jul-14 02:34N 49°41' W 000°31'9 8.7
2014-Jul-14 01:31N 49°50' W 000°32'4611.0
2014-Jul-13 21:19N 50°29' E 000°04'910.4
2014-Jul-13 20:28N 50°32' E 000°17'1011.4
2014-Jul-13 19:33N 50°36' E 000°33'1110.8
2014-Jul-13 18:33N 50°42' E 000°47'1111.3
2014-Jul-13 17:33N 50°48' E 001°02'1313.2
2014-Jul-13 16:33N 50°58' E 001°16'1212.1
2014-Jul-13 15:33N 51°06' E 001°31'1010.2
2014-Jul-13 14:34N 51°12' E 001°43'1010.0
2014-Jul-13 13:33N 51°20' E 001°53'1111.2
2014-Jul-13 12:33N 51°30' E 002°02'1212.4
2014-Jul-13 11:33N 51°39' E 002°15'5211.6
2014-Jul-13 07:07N 52°26' E 002°50'1211.4
2014-Jul-13 06:04N 52°37' E 002°59'712.7
2014-Jul-13 05:31N 52°43' E 003°05'1412.3
2014-Jul-13 04:21N 52°55' E 003°16'911.8
2014-Jul-13 03:34N 53°04' E 003°20'1211.7
2014-Jul-13 02:34N 53°16' E 003°26'1212.1
2014-Jul-13 01:34N 53°27' E 003°31'1312.6
2014-Jul-13 00:34N 53°39' E 003°38'1313.1
2014-Jul-12 23:34N 53°49' E 003°53'1413.6
2014-Jul-12 22:33N 53°57' E 004°11'1313.2
2014-Jul-12 21:33N 54°08' E 004°24'1613.0
2014-Jul-12 20:20N 54°21' E 004°38'1312.9
2014-Jul-12 19:19N 54°33' E 004°50'2312.9
2014-Jul-12 17:34N 54°52' E 005°09'1613.1
2014-Jul-12 16:21N 55°06' E 005°23'1113.4
2014-Jul-12 15:33N 55°15' E 005°33'1313.4
2014-Jul-12 14:33N 55°27' E 005°44'1513.3
2014-Jul-12 13:27N 55°40' E 005°58'1213.4
2014-Jul-12 12:32N 55°50' E 006°09'14612.1
2014-Jul-12 00:32N 57°40' E 009°04'1312.9
2014-Jul-11 23:32N 57°45' E 009°26'1313.3
2014-Jul-11 22:33N 57°50' E 009°49'1313.1
2014-Jul-11 21:33N 57°52' E 010°13'1313.2
2014-Jul-11 20:33N 57°52' E 010°37'1212.1
2014-Jul-11 19:33N 57°44' E 010°55'1212.4
2014-Jul-11 18:33N 57°35' E 011°12'1313.1
2014-Jul-11 17:33N 57°25' E 011°27'1313.1
2014-Jul-11 16:33N 57°13' E 011°36'1212.6
2014-Jul-11 15:33N 57°01' E 011°44'1313.0
2014-Jul-11 14:33N 56°49' E 011°52'1312.4
2014-Jul-11 13:32N 56°37' E 011°45'1413.6
2014-Jul-11 12:33N 56°25' E 011°33'1413.6
2014-Jul-11 11:30N 56°13' E 011°19'1413.9
2014-Jul-11 10:31N 56°02' E 011°06'1613.7
2014-Jul-11 09:20N 55°49' E 010°49'3812.6
2014-Jul-11 06:19N 55°12' E 011°05'7 9.4
2014-Jul-11 05:32N 55°05' E 010°60'1414.1
2014-Jul-11 04:33N 54°52' E 010°50'1312.9
2014-Jul-11 03:33N 54°40' E 010°50'1413.8
2014-Jul-11 02:33N 54°35' E 011°12'1414.2
2014-Jul-11 01:33N 54°29' E 011°35'1413.8
2014-Jul-11 00:34N 54°26' E 011°58'1211.6
2014-Jul-10 23:34N 54°33' E 012°14'1313.3
2014-Jul-10 22:33N 54°42' E 012°31'1413.6
2014-Jul-10 21:33N 54°49' E 012°52'1413.7
2014-Jul-10 20:33N 54°53' E 013°14'1413.6
2014-Jul-10 19:33N 54°58' E 013°36'  
Track history (hours):
 
Tides and Currents Weather Stations Pressure Air Temp Water Temp Dewpoint Dewpoint Depression Visibility Wind Speed Wind Dir Waves Ship Positions

British Ensign

Last reported at 2014-Jul-20 19:00 UTC. Time now 2014-Jul-23 14:00 UTC.
Position N 61°48' E 002°30'.

Length 184.2 m; beam 27.4 m; draft 11.3 m.

Type: Ship. MMSI: 235010980.

Wind from 090 at 10 knots

Waves 0.5 meters (2 feet), 2 second period

Barometer 1017.1 mb
Air temperature 20.0 ° C
Visibility: greater than 10.8 NM
Dewpoint 14.9 ° C

Date/timePositionNaut miles runAvg speedWind from/ knotsBaromVisibWave heightAir tempDewpointWater temp
2014-Jul-20 19:00N 61°48' E 002°30'30412.0 090 / 101017.110.8 0.520.014.9
2014-Jul-19 17:33N 57°36' E 008°06'2014.2
2014-Jul-19 16:11N 57°40' E 008°41'913.9
2014-Jul-19 15:33N 57°43' E 008°57'1413.9
2014-Jul-19 14:32N 57°46' E 009°22'1413.9
2014-Jul-19 13:33N 57°47' E 009°48'1414.4
2014-Jul-19 12:33N 57°48' E 010°15'1414.1
2014-Jul-19 11:33N 57°48' E 010°41'6 6.1
2014-Jul-19 10:33N 57°42' E 010°41'0 0.0
2014-Jul-19 09:33N 57°42' E 010°41'0 0.0
2014-Jul-19 08:30N 57°42' E 010°41'0 0.1
2014-Jul-19 07:33N 57°42' E 010°41'0 0.0
2014-Jul-19 06:33N 57°42' E 010°41'0 0.0
2014-Jul-19 05:33N 57°42' E 010°41'0 0.0
2014-Jul-19 04:30N 57°42' E 010°41'5 5.1
2014-Jul-19 03:33N 57°46' E 010°44'9 9.4
2014-Jul-19 02:33N 57°47' E 010°27'1414.1
2014-Jul-19 01:33N 57°47' E 010°00'1714.2
2014-Jul-19 00:20N 57°46' E 009°28'1314.8
2014-Jul-18 23:26N 57°41' E 009°05'1514.7
2014-Jul-18 22:27N 57°35' E 008°41'1314.6
2014-Jul-18 21:33N 57°29' E 008°18'18013.6
2014-Jul-18 08:20N 55°02' E 005°14'2413.8
2014-Jul-18 06:33N 54°39' E 004°57'1413.7
2014-Jul-18 05:33N 54°27' E 004°49'1413.7
2014-Jul-18 04:32N 54°14' E 004°39'1413.9
2014-Jul-18 03:33N 54°00' E 004°38'1313.1
2014-Jul-18 02:33N 53°49' E 004°26'1413.6
2014-Jul-18 01:33N 53°40' E 004°09'1413.7
2014-Jul-18 00:33N 53°32' E 003°50'1313.2
2014-Jul-17 23:33N 53°21' E 003°39'1413.7
2014-Jul-17 22:33N 53°08' E 003°30'1414.1
2014-Jul-17 21:34N 52°55' E 003°20'1514.6
2014-Jul-17 20:34N 52°42' E 003°09'1515.1
2014-Jul-17 19:33N 52°29' E 002°57'1715.8
2014-Jul-17 18:30N 52°15' E 002°44'1515.4
2014-Jul-17 17:33N 51°60' E 002°45'1515.3
2014-Jul-17 16:33N 51°45' E 002°37'1515.3
2014-Jul-17 15:34N 51°34' E 002°20'1413.5
2014-Jul-17 14:33N 51°23' E 002°08'1312.7
2014-Jul-17 13:33N 51°12' E 001°59'1212.5
2014-Jul-17 12:34N 51°05' E 001°42'1111.4
2014-Jul-17 11:33N 50°56' E 001°31'1110.5
2014-Jul-17 10:33N 50°47' E 001°24'1111.4
2014-Jul-17 09:33N 50°37' E 001°14'1312.4
2014-Jul-17 08:33N 50°29' E 000°58'1212.5
2014-Jul-17 07:33N 50°26' E 000°40'1312.6
2014-Jul-17 06:33N 50°22' E 000°21'1412.4
2014-Jul-17 05:26N 50°17' E 000°00'1212.8
2014-Jul-17 04:32N 50°10' W 000°13'1413.2
2014-Jul-17 03:27N 50°00' W 000°30'1314.2
2014-Jul-17 02:33N 49°47' W 000°30'1212.3
2014-Jul-17 01:33N 49°36' W 000°22'1313.3
2014-Jul-17 00:33N 49°29' W 000°04'1212.4
2014-Jul-16 23:33N 49°26' E 000°14'10 9.7
2014-Jul-16 22:33N 49°29' E 000°28'7 7.5
2014-Jul-16 21:33N 49°27' E 000°39'  
2014-Jul-14 10:30N 49°27' E 000°34'1010.4
2014-Jul-14 09:34N 49°26' E 000°18'1212.0
2014-Jul-14 08:33N 49°28' E 000°00'7 6.8
2014-Jul-14 07:33N 49°29' W 000°10'0 0.1
2014-Jul-14 06:33N 49°29' W 000°10'0 0.1
2014-Jul-14 05:30N 49°29' W 000°10'0 0.3
2014-Jul-14 04:33N 49°29' W 000°11'9 8.7
2014-Jul-14 03:34N 49°33' W 000°22'9 9.1
2014-Jul-14 02:34N 49°41' W 000°31'9 8.7
2014-Jul-14 01:31N 49°50' W 000°32'4611.0
2014-Jul-13 21:19N 50°29' E 000°04'910.4
2014-Jul-13 20:28N 50°32' E 000°17'1011.4
2014-Jul-13 19:33N 50°36' E 000°33'1110.8
2014-Jul-13 18:33N 50°42' E 000°47'1111.3
2014-Jul-13 17:33N 50°48' E 001°02'1313.2
2014-Jul-13 16:33N 50°58' E 001°16'1212.1
2014-Jul-13 15:33N 51°06' E 001°31'1010.2
2014-Jul-13 14:34N 51°12' E 001°43'1010.0
2014-Jul-13 13:33N 51°20' E 001°53'1111.2
2014-Jul-13 12:33N 51°30' E 002°02'1212.4
2014-Jul-13 11:33N 51°39' E 002°15'5211.6
2014-Jul-13 07:07N 52°26' E 002°50'1211.4
2014-Jul-13 06:04N 52°37' E 002°59'712.7
2014-Jul-13 05:31N 52°43' E 003°05'1412.3
2014-Jul-13 04:21N 52°55' E 003°16'911.8
2014-Jul-13 03:34N 53°04' E 003°20'1211.7
2014-Jul-13 02:34N 53°16' E 003°26'1212.1
2014-Jul-13 01:34N 53°27' E 003°31'1312.6
2014-Jul-13 00:34N 53°39' E 003°38'1313.1
2014-Jul-12 23:34N 53°49' E 003°53'1413.6
2014-Jul-12 22:33N 53°57' E 004°11'1313.2
2014-Jul-12 21:33N 54°08' E 004°24'1613.0
2014-Jul-12 20:20N 54°21' E 004°38'1312.9
2014-Jul-12 19:19N 54°33' E 004°50'2312.9
2014-Jul-12 17:34N 54°52' E 005°09'1613.1
2014-Jul-12 16:21N 55°06' E 005°23'1113.4
2014-Jul-12 15:33N 55°15' E 005°33'1313.4
2014-Jul-12 14:33N 55°27' E 005°44'1513.3
2014-Jul-12 13:27N 55°40' E 005°58'1213.4
2014-Jul-12 12:32N 55°50' E 006°09'14612.1
2014-Jul-12 00:32N 57°40' E 009°04'1312.9
2014-Jul-11 23:32N 57°45' E 009°26'1313.3
2014-Jul-11 22:33N 57°50' E 009°49'1313.1
2014-Jul-11 21:33N 57°52' E 010°13'1313.2
2014-Jul-11 20:33N 57°52' E 010°37'1212.1
2014-Jul-11 19:33N 57°44' E 010°55'1212.4
2014-Jul-11 18:33N 57°35' E 011°12'1313.1
2014-Jul-11 17:33N 57°25' E 011°27'1313.1
2014-Jul-11 16:33N 57°13' E 011°36'1212.6
2014-Jul-11 15:33N 57°01' E 011°44'1313.0
2014-Jul-11 14:33N 56°49' E 011°52'1312.4
2014-Jul-11 13:32N 56°37' E 011°45'1413.6
2014-Jul-11 12:33N 56°25' E 011°33'1413.6
2014-Jul-11 11:30N 56°13' E 011°19'1413.9
2014-Jul-11 10:31N 56°02' E 011°06'1613.7
2014-Jul-11 09:20N 55°49' E 010°49'3812.6
2014-Jul-11 06:19N 55°12' E 011°05'7 9.4
2014-Jul-11 05:32N 55°05' E 010°60'1414.1
2014-Jul-11 04:33N 54°52' E 010°50'1312.9
2014-Jul-11 03:33N 54°40' E 010°50'1413.8
2014-Jul-11 02:33N 54°35' E 011°12'1414.2
2014-Jul-11 01:33N 54°29' E 011°35'1413.8
2014-Jul-11 00:34N 54°26' E 011°58'1211.6
2014-Jul-10 23:34N 54°33' E 012°14'1313.3
2014-Jul-10 22:33N 54°42' E 012°31'1413.6
2014-Jul-10 21:33N 54°49' E 012°52'1413.7
2014-Jul-10 20:33N 54°53' E 013°14'1413.6
2014-Jul-10 19:33N 54°58' E 013°36'  

Dump ship's entire track history